createdAt,value
2019-01-29T00:02:19.310Z,83.93
2019-01-29T00:04:47.849Z,92.07
2019-01-29T00:07:16.741Z,92.23
2019-01-29T00:09:45.753Z,91.93
2019-01-29T00:12:14.381Z,81.07
2019-01-29T00:14:43.107Z,86.87
2019-01-29T00:17:11.820Z,81.17
2019-01-29T00:19:40.231Z,81.30
2019-01-29T00:22:08.773Z,79.50
2019-01-29T00:24:37.459Z,79.90
2019-01-29T00:27:08.791Z,78.70
2019-01-29T00:29:41.006Z,78.53
2019-01-29T00:32:09.490Z,85.13
2019-01-29T00:34:38.027Z,73.67
2019-01-29T00:37:06.752Z,73.73
2019-01-29T00:39:35.426Z,71.37
2019-01-29T00:42:04.037Z,76.33
2019-01-29T00:44:32.499Z,73.07
2019-01-29T00:47:01.137Z,68.80
2019-01-29T00:49:29.752Z,71.60
2019-01-29T00:51:58.404Z,70.67
2019-01-29T00:54:26.916Z,80.83
2019-01-29T00:56:55.622Z,78.07
2019-01-29T00:59:24.156Z,72.13
2019-01-29T01:01:52.703Z,75.60
2019-01-29T01:04:21.317Z,71.73
2019-01-29T01:06:49.916Z,70.97
2019-01-29T01:09:18.548Z,70.97
2019-01-29T01:11:47.238Z,73.53
2019-01-29T01:14:15.703Z,67.63
2019-01-29T01:16:44.172Z,69.30
2019-01-29T01:19:12.869Z,77.93
2019-01-29T01:21:41.515Z,75.07
2019-01-29T01:24:10.124Z,70.60
2019-01-29T01:26:38.929Z,66.67
2019-01-29T01:29:07.408Z,67.63
2019-01-29T01:31:37.117Z,70.17
2019-01-29T01:34:05.694Z,74.43
2019-01-29T01:36:34.260Z,68.33
2019-01-29T01:39:04.092Z,76.67
2019-01-29T01:41:32.717Z,68.10
2019-01-29T01:44:01.366Z,67.73
2019-01-29T01:46:29.978Z,69.07
2019-01-29T01:48:59.456Z,66.27
2019-01-29T01:51:29.734Z,72.63
2019-01-29T01:53:58.204Z,73.30
2019-01-29T01:56:26.696Z,75.53
2019-01-29T01:58:55.188Z,66.87
2019-01-29T02:01:23.860Z,71.00
2019-01-29T02:03:52.488Z,69.67
2019-01-29T02:06:21.231Z,67.50
2019-01-29T02:08:49.962Z,70.27
2019-01-29T02:11:18.566Z,68.17
2019-01-29T02:13:47.136Z,73.70
2019-01-29T02:16:15.833Z,76.57
2019-01-29T02:18:44.492Z,71.40
2019-01-29T02:21:14.180Z,68.97
2019-01-29T02:23:42.892Z,70.47
2019-01-29T02:26:11.679Z,72.50
2019-01-29T02:28:40.202Z,77.63
2019-01-29T02:31:08.820Z,70.50
2019-01-29T02:33:37.230Z,72.60
2019-01-29T02:36:05.815Z,69.20
2019-01-29T02:38:34.594Z,57.70
2019-01-29T02:41:03.216Z,81.67
2019-01-29T02:43:31.857Z,77.53
2019-01-29T02:46:01.335Z,57.43
2019-01-29T02:48:29.914Z,67.47
2019-01-29T02:50:58.436Z,70.83
2019-01-29T02:53:26.960Z,64.67
2019-01-29T02:55:56.572Z,67.00
2019-01-29T02:58:26.113Z,74.30
2019-01-29T03:00:54.662Z,64.47
2019-01-29T03:03:23.284Z,64.07
2019-01-29T03:05:51.875Z,65.47
2019-01-29T03:08:20.563Z,60.63
2019-01-29T03:10:48.958Z,62.00
2019-01-29T03:13:18.450Z,66.70
2019-01-29T03:15:47.011Z,74.90
2019-01-29T03:18:15.936Z,64.93
2019-01-29T03:20:46.618Z,59.30
2019-01-29T03:23:15.044Z,61.27
2019-01-29T03:25:43.733Z,57.67
2019-01-29T03:28:12.161Z,58.53
2019-01-29T03:30:40.676Z,57.33
2019-01-29T03:33:10.257Z,64.50
2019-01-29T03:35:38.801Z,61.73
2019-01-29T03:38:07.406Z,64.17
2019-01-29T03:40:35.942Z,56.90
2019-01-29T03:43:04.588Z,63.40
2019-01-29T03:45:33.077Z,58.63
2019-01-29T03:48:01.678Z,59.27
2019-01-29T03:50:30.265Z,60.80
2019-01-29T03:52:58.816Z,62.27
2019-01-29T03:55:27.379Z,60.27
2019-01-29T03:57:55.913Z,66.27
2019-01-29T04:00:26.607Z,61.40
2019-01-29T04:02:55.023Z,57.93
2019-01-29T04:05:23.615Z,61.30
2019-01-29T04:07:52.112Z,54.10
2019-01-29T04:10:20.692Z,54.33
2019-01-29T04:12:49.328Z,54.20
2019-01-29T04:15:20.700Z,52.50
2019-01-29T04:17:51.007Z,55.40
2019-01-29T04:20:20.726Z,53.33
2019-01-29T04:22:49.300Z,51.67
2019-01-29T04:25:17.859Z,54.13
2019-01-29T04:27:46.489Z,54.43
2019-01-29T04:30:22.944Z,56.50
2019-01-29T04:32:51.486Z,66.27
2019-01-29T04:35:20.123Z,53.77
2019-01-29T04:37:48.699Z,54.27
2019-01-29T04:40:19.039Z,57.03
2019-01-29T04:42:47.665Z,60.73
2019-01-29T04:45:17.573Z,58.87
2019-01-29T04:47:46.305Z,56.83
2019-01-29T04:50:17.541Z,54.43
2019-01-29T04:52:46.057Z,58.60
2019-01-29T04:55:16.232Z,55.43
2019-01-29T04:57:45.008Z,51.17
2019-01-29T05:00:18.952Z,60.07
2019-01-29T05:02:47.536Z,59.43
2019-01-29T05:05:16.020Z,59.33
2019-01-29T05:07:44.584Z,47.13
2019-01-29T05:10:15.450Z,59.03
2019-01-29T05:12:44.182Z,60.67
2019-01-29T05:15:15.159Z,49.37
2019-01-29T05:17:44.772Z,58.07
2019-01-29T05:20:15.645Z,57.60
2019-01-29T05:23:20.756Z,53.97
2019-01-29T05:25:49.401Z,47.43
2019-01-29T05:28:17.971Z,56.17
2019-01-29T05:30:46.556Z,59.67
2019-01-29T05:33:15.377Z,61.03
2019-01-29T05:35:43.965Z,58.77
2019-01-29T05:38:12.539Z,59.97
2019-01-29T05:40:41.065Z,58.27
2019-01-29T05:43:09.570Z,57.10
2019-01-29T05:45:38.249Z,55.43
2019-01-29T05:48:16.478Z,52.93
2019-01-29T05:50:44.637Z,55.50
2019-01-29T05:53:13.193Z,57.47
2019-01-29T05:55:41.777Z,58.77
2019-01-29T05:58:10.361Z,52.40
2019-01-29T06:00:40.610Z,55.93
2019-01-29T06:03:09.263Z,54.27
2019-01-29T06:05:37.887Z,63.63
2019-01-29T06:08:06.487Z,61.40
2019-01-29T06:10:35.210Z,58.17
2019-01-29T06:13:03.857Z,56.87
2019-01-29T06:15:32.408Z,53.07
2019-01-29T06:18:01.065Z,56.03
2019-01-29T06:20:31.250Z,53.47
2019-01-29T06:22:59.809Z,51.70
2019-01-29T06:25:29.279Z,55.43
2019-01-29T06:27:57.730Z,53.83
2019-01-29T06:30:28.191Z,56.30
2019-01-29T06:32:56.904Z,54.47
2019-01-29T06:35:26.455Z,53.47
2019-01-29T06:37:55.969Z,52.93
2019-01-29T06:40:26.885Z,48.00
2019-01-29T06:42:55.364Z,61.70
2019-01-29T06:45:25.578Z,45.10
2019-01-29T06:47:54.673Z,48.33
2019-01-29T06:50:25.356Z,55.90
2019-01-29T06:52:53.929Z,56.67
2019-01-29T06:55:23.650Z,56.20
2019-01-29T06:57:55.420Z,67.40
2019-01-29T07:00:25.279Z,53.13
2019-01-29T07:02:53.982Z,54.80
2019-01-29T07:05:22.891Z,54.93
2019-01-29T07:07:51.769Z,53.93
2019-01-29T07:10:22.777Z,56.93
2019-01-29T07:12:51.513Z,53.77
2019-01-29T07:15:43.128Z,56.53
2019-01-29T07:18:22.678Z,54.57
2019-01-29T07:20:51.443Z,56.63
2019-01-29T07:23:20.003Z,55.63
2019-01-29T07:25:49.759Z,53.07
2019-01-29T07:28:18.696Z,48.83
2019-01-29T07:30:47.492Z,54.50
2019-01-29T07:33:16.347Z,56.13
2019-01-29T07:35:45.200Z,53.13
2019-01-29T07:38:13.962Z,50.07
2019-01-29T07:40:42.527Z,52.53
2019-01-29T07:43:11.444Z,54.77
2019-01-29T07:45:40.558Z,57.67
2019-01-29T07:48:09.249Z,52.73
2019-01-29T07:50:38.136Z,60.07
2019-01-29T07:53:06.758Z,44.10
2019-01-29T07:55:35.207Z,55.60
2019-01-29T07:58:03.894Z,52.80
2019-01-29T08:00:32.385Z,53.80
2019-01-29T08:03:00.883Z,53.27
2019-01-29T08:05:29.441Z,54.00
2019-01-29T08:07:58.183Z,47.13
2019-01-29T08:10:26.646Z,53.13
2019-01-29T08:12:56.576Z,54.77
2019-01-29T08:15:25.576Z,49.73
2019-01-29T08:17:54.259Z,47.90
2019-01-29T08:20:23.057Z,47.23
2019-01-29T08:22:51.798Z,54.37
2019-01-29T08:25:20.529Z,61.33
2019-01-29T08:27:49.117Z,53.47
2019-01-29T08:30:19.116Z,60.93
2019-01-29T08:32:47.930Z,50.70
2019-01-29T08:35:17.791Z,49.17
2019-01-29T08:37:46.789Z,52.67
2019-01-29T08:40:18.604Z,47.83
2019-01-29T08:42:47.614Z,47.03
2019-01-29T08:45:24.273Z,49.40
2019-01-29T08:47:55.042Z,45.90
2019-01-29T08:50:25.176Z,47.80
2019-01-29T08:52:53.757Z,54.10
2019-01-29T08:55:22.804Z,51.33
2019-01-29T08:57:51.546Z,45.50
2019-01-29T09:00:22.645Z,40.97
2019-01-29T09:02:51.960Z,46.10
2019-01-29T09:05:21.218Z,46.43
2019-01-29T09:07:50.101Z,46.43
2019-01-29T09:10:20.381Z,45.27
2019-01-29T09:12:49.424Z,45.17
2019-01-29T09:15:19.477Z,47.53
2019-01-29T09:17:48.048Z,44.10
2019-01-29T09:20:24.568Z,41.47
2019-01-29T09:22:53.287Z,41.83
2019-01-29T09:25:22.786Z,41.57
2019-01-29T09:27:55.074Z,40.40
2019-01-29T09:30:24.046Z,40.07
2019-01-29T09:32:52.911Z,41.33
2019-01-29T09:35:21.749Z,44.53
2019-01-29T09:37:50.536Z,40.70
2019-01-29T09:40:21.171Z,40.00
2019-01-29T09:42:50.128Z,38.90
2019-01-29T09:45:21.853Z,40.20
2019-01-29T09:47:50.560Z,38.63
2019-01-29T09:50:23.266Z,39.57
2019-01-29T09:52:57.651Z,43.97
2019-01-29T09:55:29.609Z,38.13
2019-01-29T09:57:56.880Z,36.83
2019-01-29T10:00:43.944Z,37.93
2019-01-29T10:03:16.038Z,36.53
2019-01-29T10:05:52.475Z,36.30
2019-01-29T10:08:19.126Z,38.33
2019-01-29T10:10:50.731Z,32.90
2019-01-29T10:13:19.648Z,34.37
2019-01-29T10:15:48.352Z,32.83
2019-01-29T10:18:16.938Z,36.87
2019-01-29T10:20:45.778Z,32.47
2019-01-29T10:23:14.392Z,28.60
2019-01-29T10:25:43.182Z,34.73
2019-01-29T10:28:11.870Z,29.47
2019-01-29T10:30:40.620Z,30.73
2019-01-29T10:33:09.641Z,26.87
2019-01-29T10:35:38.259Z,27.37
2019-01-29T10:38:07.069Z,26.77
2019-01-29T10:40:35.622Z,25.03
2019-01-29T10:43:04.427Z,26.50
2019-01-29T10:45:34.580Z,26.17
2019-01-29T10:48:03.200Z,24.47
2019-01-29T10:50:31.908Z,22.20
2019-01-29T10:53:00.421Z,24.93
2019-01-29T10:55:28.922Z,23.47
2019-01-29T10:57:57.735Z,21.20
2019-01-29T11:00:29.529Z,19.17
2019-01-29T11:02:58.217Z,19.77
2019-01-29T11:05:26.863Z,19.60
2019-01-29T11:07:55.510Z,18.87
2019-01-29T11:10:24.186Z,19.57
2019-01-29T11:12:52.955Z,21.80
2019-01-29T11:15:31.900Z,19.10
2019-01-29T11:18:00.166Z,19.17
2019-01-29T11:20:28.824Z,19.60
2019-01-29T11:22:57.486Z,18.27
2019-01-29T11:25:28.809Z,18.53
2019-01-29T11:27:57.469Z,17.47
2019-01-29T11:30:28.310Z,17.33
2019-01-29T11:32:56.912Z,15.80
2019-01-29T11:35:25.652Z,16.10
2019-01-29T11:37:54.426Z,17.80
2019-01-29T11:40:25.723Z,17.13
2019-01-29T11:42:54.583Z,15.57
2019-01-29T11:45:32.096Z,16.13
2019-01-29T11:48:00.611Z,16.13
2019-01-29T11:50:29.028Z,16.30
2019-01-29T11:52:57.935Z,16.97
2019-01-29T11:55:26.444Z,15.00
2019-01-29T11:57:55.284Z,17.20
2019-01-29T12:00:31.452Z,16.23
2019-01-29T12:03:00.123Z,15.80
2019-01-29T12:05:28.934Z,16.60
2019-01-29T12:07:57.597Z,17.93
2019-01-29T12:10:26.179Z,17.93
2019-01-29T12:12:55.311Z,16.53
2019-01-29T12:15:24.313Z,17.13
2019-01-29T12:17:52.999Z,17.77
2019-01-29T12:20:21.517Z,16.30
2019-01-29T12:22:50.537Z,16.90
2019-01-29T12:25:19.159Z,15.40
2019-01-29T12:27:48.075Z,16.13
2019-01-29T12:30:19.453Z,16.50
2019-01-29T12:32:48.343Z,15.97
2019-01-29T12:35:17.084Z,16.37
2019-01-29T12:37:45.631Z,16.33
2019-01-29T12:40:14.130Z,15.93
2019-01-29T12:42:43.086Z,15.23
2019-01-29T12:45:14.848Z,14.20
2019-01-29T12:47:43.961Z,15.80
2019-01-29T12:50:30.176Z,15.40
2019-01-29T12:53:09.546Z,14.77
2019-01-29T12:55:38.514Z,14.67
2019-01-29T12:58:06.999Z,15.50
2019-01-29T13:00:37.197Z,15.30
2019-01-29T13:03:05.799Z,16.13
2019-01-29T13:05:34.416Z,16.43
2019-01-29T13:08:03.147Z,14.50
2019-01-29T13:10:31.842Z,14.83
2019-01-29T13:13:00.552Z,16.57
2019-01-29T13:15:34.331Z,15.40
2019-01-29T13:18:03.389Z,16.73
2019-01-29T13:20:31.953Z,15.63
2019-01-29T13:23:00.593Z,16.17
2019-01-29T13:25:29.328Z,15.83
2019-01-29T13:27:58.208Z,16.47
2019-01-29T13:30:34.986Z,15.90
2019-01-29T13:33:05.445Z,15.07
2019-01-29T13:35:36.119Z,14.97
2019-01-29T13:38:05.638Z,15.00
2019-01-29T13:40:34.241Z,14.83
2019-01-29T13:43:02.943Z,15.77
2019-01-29T13:45:31.591Z,16.50
2019-01-29T13:48:00.402Z,17.87
2019-01-29T13:50:32.317Z,16.43
2019-01-29T13:53:00.810Z,17.13
2019-01-29T13:55:29.434Z,15.83
2019-01-29T13:57:58.155Z,16.30
2019-01-29T14:00:31.812Z,16.17
2019-01-29T14:03:00.467Z,16.80
2019-01-29T14:05:29.007Z,16.50
2019-01-29T14:07:57.867Z,16.67
2019-01-29T14:10:26.410Z,18.07
2019-01-29T14:12:59.541Z,18.17
2019-01-29T14:15:45.375Z,16.23
2019-01-29T14:18:17.835Z,16.10
2019-01-29T14:20:51.642Z,17.43
2019-01-29T14:23:19.876Z,16.17
2019-01-29T14:25:48.356Z,15.73
2019-01-29T14:28:16.906Z,16.77
2019-01-29T14:30:47.253Z,17.97
2019-01-29T14:33:16.033Z,16.97
2019-01-29T14:35:44.611Z,15.40
2019-01-29T14:38:24.098Z,16.43
2019-01-29T14:40:52.519Z,17.27
2019-01-29T14:43:27.375Z,15.70
2019-01-29T14:45:58.582Z,15.47
2019-01-29T14:48:39.489Z,17.33
2019-01-29T14:51:08.083Z,17.77
2019-01-29T14:53:38.870Z,17.23
2019-01-29T14:56:07.263Z,17.13
2019-01-29T14:58:36.073Z,15.77
2019-01-29T15:01:04.762Z,15.13
2019-01-29T15:03:33.462Z,15.77
2019-01-29T15:06:06.245Z,14.20
2019-01-29T15:08:34.909Z,15.83
2019-01-29T15:11:03.615Z,16.40
2019-01-29T15:13:32.324Z,15.77
2019-01-29T15:16:08.265Z,13.43
2019-01-29T15:19:00.714Z,14.20
2019-01-29T15:21:37.528Z,13.57
2019-01-29T15:23:59.451Z,12.97
2019-01-29T15:26:27.980Z,12.23
2019-01-29T15:28:56.810Z,11.93
2019-01-29T15:31:25.230Z,11.37
2019-01-29T15:33:53.830Z,12.00
2019-01-29T15:36:22.281Z,11.13
2019-01-29T15:38:50.783Z,10.73
2019-01-29T15:41:19.439Z,10.23
2019-01-29T15:43:48.047Z,10.97
2019-01-29T15:46:16.715Z,11.07
2019-01-29T15:48:45.234Z,12.00
2019-01-29T15:51:14.063Z,11.97
2019-01-29T15:53:47.373Z,12.60
2019-01-29T15:56:15.997Z,12.00
2019-01-29T15:58:47.764Z,13.90
2019-01-29T16:01:16.568Z,13.83
2019-01-29T16:03:45.504Z,14.70
2019-01-29T16:06:17.518Z,15.87
2019-01-29T16:08:49.127Z,15.07
2019-01-29T16:11:18.196Z,15.33
2019-01-29T16:13:47.020Z,18.10
2019-01-29T16:16:15.724Z,17.43
2019-01-29T16:18:47.068Z,16.87
2019-01-29T16:21:33.681Z,20.13
2019-01-29T16:24:02.300Z,17.97
2019-01-29T16:26:31.912Z,18.37
2019-01-29T16:29:03.469Z,19.47
2019-01-29T16:31:32.605Z,19.80
2019-01-29T16:34:01.501Z,19.20
2019-01-29T16:36:30.334Z,18.80
2019-01-29T16:38:59.217Z,17.13
2019-01-29T16:41:28.018Z,17.57
2019-01-29T16:43:56.772Z,17.00
2019-01-29T16:46:26.311Z,16.97
2019-01-29T16:48:54.956Z,16.27
2019-01-29T16:51:23.713Z,16.93
2019-01-29T16:53:52.833Z,17.17
2019-01-29T16:56:21.650Z,17.97
2019-01-29T16:58:50.416Z,17.17
2019-01-29T17:01:19.086Z,18.30
2019-01-29T17:03:47.869Z,18.60
2019-01-29T17:06:16.588Z,17.30
2019-01-29T17:08:45.316Z,18.67
2019-01-29T17:11:20.183Z,18.83
2019-01-29T17:13:55.820Z,18.83
2019-01-29T17:16:24.002Z,18.70
2019-01-29T17:19:00.325Z,19.03
2019-01-29T17:21:29.114Z,19.13
2019-01-29T17:23:57.904Z,20.40
2019-01-29T17:26:44.981Z,19.97
2019-01-29T17:29:13.954Z,20.33
2019-01-29T17:31:43.664Z,19.70
2019-01-29T17:34:12.420Z,19.47
2019-01-29T17:36:41.535Z,19.80
2019-01-29T17:39:10.198Z,20.60
2019-01-29T17:41:40.390Z,23.33
2019-01-29T17:44:09.279Z,20.87
2019-01-29T17:46:37.977Z,20.70
2019-01-29T17:49:07.025Z,22.37
2019-01-29T17:51:38.794Z,22.53
2019-01-29T17:54:07.611Z,20.30
2019-01-29T17:56:36.443Z,22.83
2019-01-29T17:59:05.362Z,20.73
2019-01-29T18:01:36.801Z,23.57
2019-01-29T18:04:05.506Z,26.20
2019-01-29T18:06:34.322Z,28.57
2019-01-29T18:09:06.428Z,26.13
2019-01-29T18:11:38.489Z,25.47
2019-01-29T18:14:07.061Z,26.43
2019-01-29T18:16:55.127Z,25.67
2019-01-29T18:19:45.043Z,29.13
2019-01-29T18:22:06.639Z,27.57
2019-01-29T18:24:35.760Z,26.63
2019-01-29T18:27:04.613Z,25.73
2019-01-29T18:29:40.353Z,26.50
2019-01-29T18:32:09.168Z,24.90
2019-01-29T18:34:38.151Z,23.53
2019-01-29T18:37:06.926Z,24.20
2019-01-29T18:39:38.377Z,24.67
2019-01-29T18:42:07.278Z,26.23
2019-01-29T18:44:35.984Z,33.23
2019-01-29T18:47:04.712Z,25.33
2019-01-29T18:49:33.307Z,26.13
2019-01-29T18:52:02.369Z,25.73
2019-01-29T18:54:30.927Z,23.93
2019-01-29T18:56:59.671Z,22.40
2019-01-29T18:59:28.291Z,24.33
2019-01-29T19:01:57.040Z,24.30
2019-01-29T19:04:27.294Z,24.90
2019-01-29T19:06:56.045Z,25.40
2019-01-29T19:09:24.701Z,23.23
2019-01-29T19:11:53.489Z,24.33
2019-01-29T19:14:22.346Z,24.03
2019-01-29T19:16:50.988Z,25.37
2019-01-29T19:20:28.345Z,24.23
2019-01-29T19:25:52.295Z,23.40
2019-01-29T19:28:49.297Z,25.57
2019-01-29T19:29:22.350Z,23.70
2019-01-29T19:46:19.100Z,24.30
2019-01-29T19:48:51.822Z,24.30
2019-01-29T19:51:27.702Z,25.57
2019-01-29T19:53:54.267Z,24.40
2019-01-29T19:56:23.047Z,24.90
2019-01-29T19:58:51.611Z,24.07
2019-01-29T20:01:21.603Z,23.90
2019-01-29T20:03:52.215Z,23.63
2019-01-29T20:06:25.744Z,24.30
2019-01-29T20:08:58.754Z,23.90
2019-01-29T20:11:30.062Z,24.67
2019-01-29T20:14:01.439Z,25.93
2019-01-29T20:16:31.287Z,24.03
2019-01-29T20:19:01.751Z,24.53
2019-01-29T20:21:31.717Z,24.27
2019-01-29T20:24:04.754Z,25.00
2019-01-29T20:26:32.560Z,25.17
2019-01-29T20:29:01.535Z,25.57
2019-01-29T20:31:34.520Z,25.00
2019-01-29T20:34:03.257Z,25.87
2019-01-29T20:36:33.310Z,25.03
2019-01-29T20:39:05.183Z,24.63
2019-01-29T20:41:33.780Z,26.80
2019-01-29T20:44:02.332Z,25.03
2019-01-29T20:46:34.694Z,26.77
2019-01-29T20:49:03.498Z,24.47
2019-01-29T20:51:35.887Z,25.87
2019-01-29T20:54:07.579Z,27.30
2019-01-29T20:56:38.539Z,29.80
2019-01-29T20:59:11.445Z,26.97
2019-01-29T21:01:42.686Z,29.63
2019-01-29T21:04:12.723Z,27.00
2019-01-29T21:06:42.932Z,28.97
2019-01-29T21:09:46.149Z,28.03
2019-01-29T21:12:23.642Z,31.80
2019-01-29T21:15:08.193Z,31.53
2019-01-29T21:17:45.058Z,29.87
2019-01-29T21:20:32.480Z,30.17
2019-01-29T21:23:07.734Z,28.90
2019-01-29T21:25:38.588Z,27.57
2019-01-29T21:28:12.664Z,28.33
2019-01-29T21:30:44.524Z,28.10
2019-01-29T21:33:13.411Z,23.83
2019-01-29T21:35:42.018Z,25.13
2019-01-29T21:38:10.880Z,23.43
2019-01-29T21:40:39.530Z,25.40
2019-01-29T21:43:08.254Z,22.53
2019-01-29T21:45:37.367Z,23.90
2019-01-29T21:48:07.265Z,21.53
2019-01-29T21:50:36.298Z,23.30
2019-01-29T21:53:05.617Z,22.33
2019-01-29T21:55:34.172Z,23.33
2019-01-29T21:58:02.866Z,22.93
2019-01-29T22:00:40.853Z,22.97
2019-01-29T22:03:10.778Z,23.27
2019-01-29T22:05:43.883Z,22.67
2019-01-29T22:08:16.350Z,22.60
2019-01-29T22:10:46.697Z,23.97
2019-01-29T22:13:23.011Z,23.67
2019-01-29T22:15:52.783Z,23.93
2019-01-29T22:18:23.817Z,23.77
2019-01-29T22:20:55.286Z,23.60
2019-01-29T22:23:24.022Z,24.10
2019-01-29T22:25:52.774Z,23.27
2019-01-29T22:28:24.274Z,23.60
2019-01-29T22:30:53.104Z,22.30
2019-01-29T22:33:23.586Z,23.13
2019-01-29T22:35:52.288Z,23.50
2019-01-29T22:38:22.553Z,24.03
2019-01-29T22:40:51.424Z,25.17
2019-01-29T22:43:21.547Z,23.77
2019-01-29T22:45:50.081Z,24.63
2019-01-29T22:48:18.597Z,25.73
2019-01-29T22:50:50.546Z,25.57
2019-01-29T22:53:19.685Z,27.83
2019-01-29T22:55:59.148Z,24.60
2019-01-29T22:58:34.941Z,27.13
2019-01-29T23:01:09.394Z,26.47
2019-01-29T23:03:44.997Z,26.77
2019-01-29T23:06:33.690Z,25.83
2019-01-29T23:09:07.816Z,25.53
2019-01-29T23:11:35.974Z,26.57
2019-01-29T23:14:11.896Z,25.70
2019-01-29T23:16:50.861Z,25.47
2019-01-29T23:20:30.728Z,26.50
2019-01-29T23:22:14.254Z,25.83
2019-01-29T23:24:45.804Z,26.50
2019-01-29T23:27:14.526Z,25.20
2019-01-29T23:29:44.985Z,26.83
2019-01-29T23:32:13.635Z,27.50
2019-01-29T23:34:49.836Z,27.27
2019-01-29T23:37:22.545Z,26.67
2019-01-29T23:39:51.197Z,27.07
2019-01-29T23:42:25.184Z,29.40
2019-01-29T23:44:54.337Z,28.40
2019-01-29T23:47:24.529Z,27.33
2019-01-29T23:49:53.159Z,28.03
2019-01-29T23:52:23.276Z,28.83
2019-01-29T23:54:55.103Z,26.67
2019-01-29T23:57:23.778Z,27.80
2019-01-29T23:59:55.086Z,29.13
